sensor_id;sensor_type;location;lat;lon;timestamp;temperature;humidity
70593;DHT22;58294;42.988;20.338;2022-09-11T00:00:57;384.40;2278.40
70593;DHT22;58294;42.988;20.338;2022-09-11T00:03:24;384.30;2304.00
70593;DHT22;58294;42.988;20.338;2022-09-11T00:05:50;384.30;2304.00
70593;DHT22;58294;42.988;20.338;2022-09-11T00:08:18;384.30;2278.40
70593;DHT22;58294;42.988;20.338;2022-09-11T00:10:46;384.30;2278.40
70593;DHT22;58294;42.988;20.338;2022-09-11T00:13:21;384.30;2252.80
70593;DHT22;58294;42.988;20.338;2022-09-11T00:15:50;384.20;2278.40
70593;DHT22;58294;42.988;20.338;2022-09-11T00:18:18;384.20;2278.40
70593;DHT22;58294;42.988;20.338;2022-09-11T00:20:53;384.20;2304.00
70593;DHT22;58294;42.988;20.338;2022-09-11T00:23:22;384.20;2278.40
70593;DHT22;58294;42.988;20.338;2022-09-11T00:25:48;384.20;2304.00
70593;DHT22;58294;42.988;20.338;2022-09-11T00:28:16;384.20;2304.00
70593;DHT22;58294;42.988;20.338;2022-09-11T00:30:45;384.20;2329.60
70593;DHT22;58294;42.988;20.338;2022-09-11T00:33:12;384.20;2304.00
70593;DHT22;58294;42.988;20.338;2022-09-11T00:35:39;384.20;2329.60
70593;DHT22;58294;42.988;20.338;2022-09-11T00:38:06;384.30;2329.60
70593;DHT22;58294;42.988;20.338;2022-09-11T00:40:53;384.20;2329.60
70593;DHT22;58294;42.988;20.338;2022-09-11T00:43:20;384.20;2304.00
70593;DHT22;58294;42.988;20.338;2022-09-11T00:45:52;384.20;2304.00
70593;DHT22;58294;42.988;20.338;2022-09-11T00:48:21;384.30;2329.60
70593;DHT22;58294;42.988;20.338;2022-09-11T00:50:49;384.20;2329.60
70593;DHT22;58294;42.988;20.338;2022-09-11T00:53:18;384.20;2329.60
70593;DHT22;58294;42.988;20.338;2022-09-11T00:55:51;384.20;2329.60
70593;DHT22;58294;42.988;20.338;2022-09-11T00:58:21;384.20;2329.60
70593;DHT22;58294;42.988;20.338;2022-09-11T01:00:51;384.20;2329.60
70593;DHT22;58294;42.988;20.338;2022-09-11T01:03:17;384.20;2329.60
70593;DHT22;58294;42.988;20.338;2022-09-11T01:05:44;384.20;2329.60
70593;DHT22;58294;42.988;20.338;2022-09-11T01:08:10;384.20;2329.60
70593;DHT22;58294;42.988;20.338;2022-09-11T01:16:53;384.20;2329.60
70593;DHT22;58294;42.988;20.338;2022-09-11T01:27:53;384.30;2329.60
70593;DHT22;58294;42.988;20.338;2022-09-11T01:30:47;384.40;2329.60
70593;DHT22;58294;42.988;20.338;2022-09-11T01:33:32;384.30;2329.60
70593;DHT22;58294;42.988;20.338;2022-09-11T01:36:16;384.40;2329.60
70593;DHT22;58294;42.988;20.338;2022-09-11T01:38:59;384.40;2329.60
70593;DHT22;58294;42.988;20.338;2022-09-11T01:41:50;384.50;2329.60
70593;DHT22;58294;42.988;20.338;2022-09-11T01:44:25;384.50;2329.60
70593;DHT22;58294;42.988;20.338;2022-09-11T01:46:52;384.50;2329.60
70593;DHT22;58294;42.988;20.338;2022-09-11T01:49:26;384.50;2329.60
70593;DHT22;58294;42.988;20.338;2022-09-11T01:51:56;384.50;2329.60
70593;DHT22;58294;42.988;20.338;2022-09-11T01:54:26;384.50;2329.60
70593;DHT22;58294;42.988;20.338;2022-09-11T01:56:58;384.50;2329.60
70593;DHT22;58294;42.988;20.338;2022-09-11T01:59:33;384.50;2329.60
70593;DHT22;58294;42.988;20.338;2022-09-11T02:02:04;384.60;2329.60
70593;DHT22;58294;42.988;20.338;2022-09-11T02:04:51;384.50;2329.60
70593;DHT22;58294;42.988;20.338;2022-09-11T02:07:27;384.50;2329.60
70593;DHT22;58294;42.988;20.338;2022-09-11T02:11:09;384.40;2329.60
70593;DHT22;58294;42.988;20.338;2022-09-11T02:13:13;384.40;2329.60
70593;DHT22;58294;42.988;20.338;2022-09-11T02:18:50;384.50;2329.60
70593;DHT22;58294;42.988;20.338;2022-09-11T02:21:16;384.60;2329.60
70593;DHT22;58294;42.988;20.338;2022-09-11T02:23:42;384.60;2329.60
70593;DHT22;58294;42.988;20.338;2022-09-11T02:26:09;384.60;2329.60
70593;DHT22;58294;42.988;20.338;2022-09-11T02:28:36;384.70;2329.60
70593;DHT22;58294;42.988;20.338;2022-09-11T02:31:02;384.70;2329.60
70593;DHT22;58294;42.988;20.338;2022-09-11T02:33:29;384.70;2329.60
70593;DHT22;58294;42.988;20.338;2022-09-11T02:36:25;384.60;2329.60
70593;DHT22;58294;42.988;20.338;2022-09-11T02:41:48;384.60;2329.60
70593;DHT22;58294;42.988;20.338;2022-09-11T02:55:26;384.50;2329.60
70593;DHT22;58294;42.988;20.338;2022-09-11T02:58:07;384.50;2329.60
70593;DHT22;58294;42.988;20.338;2022-09-11T03:00:34;384.50;2329.60
70593;DHT22;58294;42.988;20.338;2022-09-11T03:03:00;384.50;2329.60
70593;DHT22;58294;42.988;20.338;2022-09-11T03:05:26;384.40;2329.60
70593;DHT22;58294;42.988;20.338;2022-09-11T03:07:53;384.40;2329.60
70593;DHT22;58294;42.988;20.338;2022-09-11T03:10:19;384.40;2329.60
70593;DHT22;58294;42.988;20.338;2022-09-11T03:12:45;384.40;2329.60
70593;DHT22;58294;42.988;20.338;2022-09-11T03:15:11;384.40;2329.60
70593;DHT22;58294;42.988;20.338;2022-09-11T03:17:37;384.30;2329.60
70593;DHT22;58294;42.988;20.338;2022-09-11T03:20:04;384.30;2329.60
70593;DHT22;58294;42.988;20.338;2022-09-11T03:22:29;384.20;2329.60
70593;DHT22;58294;42.988;20.338;2022-09-11T03:24:55;384.20;2329.60
70593;DHT22;58294;42.988;20.338;2022-09-11T03:27:21;384.30;2329.60
70593;DHT22;58294;42.988;20.338;2022-09-11T03:29:48;384.20;2329.60
70593;DHT22;58294;42.988;20.338;2022-09-11T03:32:14;384.20;2329.60
70593;DHT22;58294;42.988;20.338;2022-09-11T03:34:40;384.20;2329.60
70593;DHT22;58294;42.988;20.338;2022-09-11T03:37:06;384.30;2329.60
70593;DHT22;58294;42.988;20.338;2022-09-11T03:39:32;384.30;2329.60
70593;DHT22;58294;42.988;20.338;2022-09-11T03:41:58;384.30;2329.60
70593;DHT22;58294;42.988;20.338;2022-09-11T03:44:24;384.30;2329.60
70593;DHT22;58294;42.988;20.338;2022-09-11T03:46:50;384.20;2329.60
70593;DHT22;58294;42.988;20.338;2022-09-11T03:49:17;384.30;2329.60
70593;DHT22;58294;42.988;20.338;2022-09-11T03:51:44;384.20;2329.60
70593;DHT22;58294;42.988;20.338;2022-09-11T03:54:12;384.20;2329.60
70593;DHT22;58294;42.988;20.338;2022-09-11T03:56:40;384.20;2329.60
70593;DHT22;58294;42.988;20.338;2022-09-11T03:59:07;384.20;2329.60
70593;DHT22;58294;42.988;20.338;2022-09-11T04:01:33;384.20;2329.60
70593;DHT22;58294;42.988;20.338;2022-09-11T04:04:00;384.20;2329.60
70593;DHT22;58294;42.988;20.338;2022-09-11T04:06:26;384.00;2329.60
70593;DHT22;58294;42.988;20.338;2022-09-11T04:08:52;384.00;2329.60
70593;DHT22;58294;42.988;20.338;2022-09-11T04:11:18;359.30;2329.60
70593;DHT22;58294;42.988;20.338;2022-09-11T04:13:44;359.20;2329.60
70593;DHT22;58294;42.988;20.338;2022-09-11T04:16:15;359.20;2329.60
70593;DHT22;58294;42.988;20.338;2022-09-11T04:18:42;359.20;2329.60
70593;DHT22;58294;42.988;20.338;2022-09-11T04:21:11;359.20;2329.60
70593;DHT22;58294;42.988;20.338;2022-09-11T04:23:37;359.20;2329.60
70593;DHT22;58294;42.988;20.338;2022-09-11T04:26:15;359.10;2329.60
70593;DHT22;58294;42.988;20.338;2022-09-11T04:28:42;359.10;2329.60
70593;DHT22;58294;42.988;20.338;2022-09-11T04:31:08;359.10;2329.60
70593;DHT22;58294;42.988;20.338;2022-09-11T04:33:34;359.20;2329.60
70593;DHT22;58294;42.988;20.338;2022-09-11T04:36:05;359.20;2329.60
70593;DHT22;58294;42.988;20.338;2022-09-11T04:38:31;359.20;2329.60
70593;DHT22;58294;42.988;20.338;2022-09-11T04:41:05;359.20;2329.60
70593;DHT22;58294;42.988;20.338;2022-09-11T04:43:32;359.20;2329.60
70593;DHT22;58294;42.988;20.338;2022-09-11T04:46:00;359.20;2329.60
70593;DHT22;58294;42.988;20.338;2022-09-11T04:48:26;359.20;2329.60
70593;DHT22;58294;42.988;20.338;2022-09-11T04:51:03;359.20;2329.60
70593;DHT22;58294;42.988;20.338;2022-09-11T04:53:29;359.30;2329.60
70593;DHT22;58294;42.988;20.338;2022-09-11T04:56:10;384.00;2329.60
70593;DHT22;58294;42.988;20.338;2022-09-11T04:58:40;384.00;2329.60
70593;DHT22;58294;42.988;20.338;2022-09-11T05:01:14;384.00;2329.60
70593;DHT22;58294;42.988;20.338;2022-09-11T05:03:41;384.00;2329.60
70593;DHT22;58294;42.988;20.338;2022-09-11T05:06:10;384.00;2329.60
70593;DHT22;58294;42.988;20.338;2022-09-11T05:08:36;384.00;2329.60
70593;DHT22;58294;42.988;20.338;2022-09-11T05:11:05;384.00;2329.60
70593;DHT22;58294;42.988;20.338;2022-09-11T05:13:32;384.00;2329.60
70593;DHT22;58294;42.988;20.338;2022-09-11T05:16:06;384.00;2329.60
70593;DHT22;58294;42.988;20.338;2022-09-11T05:18:40;384.00;2329.60
70593;DHT22;58294;42.988;20.338;2022-09-11T05:21:12;384.00;2329.60
70593;DHT22;58294;42.988;20.338;2022-09-11T05:23:38;384.10;2329.60
70593;DHT22;58294;42.988;20.338;2022-09-11T05:26:05;384.10;2329.60
70593;DHT22;58294;42.988;20.338;2022-09-11T05:28:32;384.10;2329.60
70593;DHT22;58294;42.988;20.338;2022-09-11T05:30:58;384.10;2329.60
70593;DHT22;58294;42.988;20.338;2022-09-11T05:33:26;384.10;2329.60
70593;DHT22;58294;42.988;20.338;2022-09-11T05:35:53;384.10;2329.60
70593;DHT22;58294;42.988;20.338;2022-09-11T05:38:20;384.10;2329.60
70593;DHT22;58294;42.988;20.338;2022-09-11T05:40:50;384.20;2329.60
70593;DHT22;58294;42.988;20.338;2022-09-11T05:43:17;384.30;2329.60
70593;DHT22;58294;42.988;20.338;2022-09-11T05:45:51;384.40;2329.60
70593;DHT22;58294;42.988;20.338;2022-09-11T05:48:17;384.50;2329.60
70593;DHT22;58294;42.988;20.338;2022-09-11T05:50:51;384.50;2329.60
70593;DHT22;58294;42.988;20.338;2022-09-11T05:53:17;384.60;2329.60
70593;DHT22;58294;42.988;20.338;2022-09-11T05:55:43;384.60;2329.60
70593;DHT22;58294;42.988;20.338;2022-09-11T05:58:09;384.60;2329.60
70593;DHT22;58294;42.988;20.338;2022-09-11T06:00:35;384.70;2329.60
70593;DHT22;58294;42.988;20.338;2022-09-11T06:03:01;384.70;2329.60
70593;DHT22;58294;42.988;20.338;2022-09-11T06:05:27;384.70;2329.60
70593;DHT22;58294;42.988;20.338;2022-09-11T06:07:53;384.80;2329.60
70593;DHT22;58294;42.988;20.338;2022-09-11T06:10:19;384.80;2329.60
70593;DHT22;58294;42.988;20.338;2022-09-11T06:12:44;384.80;2329.60
70593;DHT22;58294;42.988;20.338;2022-09-11T06:15:10;384.90;2329.60
70593;DHT22;58294;42.988;20.338;2022-09-11T06:17:36;384.90;2329.60
70593;DHT22;58294;42.988;20.338;2022-09-11T06:20:02;384.90;2329.60
70593;DHT22;58294;42.988;20.338;2022-09-11T06:22:28;384.90;2329.60
70593;DHT22;58294;42.988;20.338;2022-09-11T06:24:54;384.90;2329.60
70593;DHT22;58294;42.988;20.338;2022-09-11T06:27:20;409.60;2355.20
70593;DHT22;58294;42.988;20.338;2022-09-11T06:29:45;409.60;2355.20
70593;DHT22;58294;42.988;20.338;2022-09-11T06:32:11;409.60;2355.20
70593;DHT22;58294;42.988;20.338;2022-09-11T06:34:37;409.70;2355.20
70593;DHT22;58294;42.988;20.338;2022-09-11T06:37:03;409.70;2355.20
70593;DHT22;58294;42.988;20.338;2022-09-11T06:39:29;409.80;2355.20
70593;DHT22;58294;42.988;20.338;2022-09-11T06:41:54;409.80;2355.20
70593;DHT22;58294;42.988;20.338;2022-09-11T06:44:20;409.80;2355.20
70593;DHT22;58294;42.988;20.338;2022-09-11T06:46:46;409.90;2355.20
70593;DHT22;58294;42.988;20.338;2022-09-11T06:49:12;409.90;2355.20
70593;DHT22;58294;42.988;20.338;2022-09-11T06:51:38;409.90;2355.20
70593;DHT22;58294;42.988;20.338;2022-09-11T06:54:05;409.90;2355.20
70593;DHT22;58294;42.988;20.338;2022-09-11T06:56:31;409.90;2355.20
70593;DHT22;58294;42.988;20.338;2022-09-11T06:58:57;409.90;2355.20
70593;DHT22;58294;42.988;20.338;2022-09-11T07:01:24;409.90;2355.20
70593;DHT22;58294;42.988;20.338;2022-09-11T07:03:51;409.80;2355.20
70593;DHT22;58294;42.988;20.338;2022-09-11T07:06:22;409.80;2355.20
70593;DHT22;58294;42.988;20.338;2022-09-11T07:09:09;409.90;2355.20
70593;DHT22;58294;42.988;20.338;2022-09-11T07:11:35;409.90;2355.20
70593;DHT22;58294;42.988;20.338;2022-09-11T07:14:03;410.00;2355.20
70593;DHT22;58294;42.988;20.338;2022-09-11T07:16:31;410.10;2355.20
70593;DHT22;58294;42.988;20.338;2022-09-11T07:18:57;410.30;2355.20
70593;DHT22;58294;42.988;20.338;2022-09-11T07:21:25;410.50;2355.20
70593;DHT22;58294;42.988;20.338;2022-09-11T07:23:55;435.20;2355.20
70593;DHT22;58294;42.988;20.338;2022-09-11T07:26:23;435.30;2355.20
70593;DHT22;58294;42.988;20.338;2022-09-11T07:28:49;435.30;2355.20
70593;DHT22;58294;42.988;20.338;2022-09-11T07:31:22;435.30;2355.20
70593;DHT22;58294;42.988;20.338;2022-09-11T07:33:49;435.50;2355.20
70593;DHT22;58294;42.988;20.338;2022-09-11T07:36:17;435.60;2355.20
70593;DHT22;58294;42.988;20.338;2022-09-11T07:38:45;435.60;2355.20
70593;DHT22;58294;42.988;20.338;2022-09-11T07:41:13;435.70;2355.20
70593;DHT22;58294;42.988;20.338;2022-09-11T07:43:40;435.70;2355.20
70593;DHT22;58294;42.988;20.338;2022-09-11T07:46:10;435.80;2355.20
70593;DHT22;58294;42.988;20.338;2022-09-11T07:48:37;435.90;2355.20
70593;DHT22;58294;42.988;20.338;2022-09-11T07:51:09;436.10;2355.20
70593;DHT22;58294;42.988;20.338;2022-09-11T07:53:40;436.10;2355.20
70593;DHT22;58294;42.988;20.338;2022-09-11T07:56:08;436.10;2355.20
70593;DHT22;58294;42.988;20.338;2022-09-11T07:58:36;460.80;2380.80
70593;DHT22;58294;42.988;20.338;2022-09-11T08:01:06;460.90;2380.80
70593;DHT22;58294;42.988;20.338;2022-09-11T08:03:34;460.90;2380.80
70593;DHT22;58294;42.988;20.338;2022-09-11T08:06:02;460.90;2380.80
70593;DHT22;58294;42.988;20.338;2022-09-11T08:08:29;460.90;2380.80
70593;DHT22;58294;42.988;20.338;2022-09-11T08:10:56;460.90;2380.80
70593;DHT22;58294;42.988;20.338;2022-09-11T08:13:22;460.90;2380.80
70593;DHT22;58294;42.988;20.338;2022-09-11T08:15:49;461.00;2380.80
70593;DHT22;58294;42.988;20.338;2022-09-11T08:18:16;460.90;2380.80
70593;DHT22;58294;42.988;20.338;2022-09-11T08:20:42;460.90;2380.80
70593;DHT22;58294;42.988;20.338;2022-09-11T08:23:08;460.90;2380.80
70593;DHT22;58294;42.988;20.338;2022-09-11T08:25:35;460.90;2380.80
70593;DHT22;58294;42.988;20.338;2022-09-11T08:28:02;461.00;2380.80
70593;DHT22;58294;42.988;20.338;2022-09-11T08:30:28;461.00;2380.80
70593;DHT22;58294;42.988;20.338;2022-09-11T08:32:54;461.00;2380.80
70593;DHT22;58294;42.988;20.338;2022-09-11T08:35:20;461.00;2380.80
70593;DHT22;58294;42.988;20.338;2022-09-11T08:37:46;461.00;2380.80
70593;DHT22;58294;42.988;20.338;2022-09-11T08:40:12;461.00;2380.80
70593;DHT22;58294;42.988;20.338;2022-09-11T08:42:42;461.10;2380.80
70593;DHT22;58294;42.988;20.338;2022-09-11T08:45:14;461.20;2380.80
70593;DHT22;58294;42.988;20.338;2022-09-11T08:47:49;461.20;2380.80
70593;DHT22;58294;42.988;20.338;2022-09-11T08:50:25;461.20;2380.80
70593;DHT22;58294;42.988;20.338;2022-09-11T08:52:52;461.40;2380.80
70593;DHT22;58294;42.988;20.338;2022-09-11T08:55:46;461.50;2380.80
70593;DHT22;58294;42.988;20.338;2022-09-11T08:58:16;461.60;2380.80
70593;DHT22;58294;42.988;20.338;2022-09-11T09:03:22;461.70;2380.80
70593;DHT22;58294;42.988;20.338;2022-09-11T09:08:46;486.50;2380.80
70593;DHT22;58294;42.988;20.338;2022-09-11T09:11:45;486.60;2380.80
70593;DHT22;58294;42.988;20.338;2022-09-11T09:19:55;486.90;2380.80
70593;DHT22;58294;42.988;20.338;2022-09-11T09:25:05;487.20;2380.80
70593;DHT22;58294;42.988;20.338;2022-09-11T09:27:39;512.00;2380.80
70593;DHT22;58294;42.988;20.338;2022-09-11T09:35:18;512.70;2380.80
70593;DHT22;58294;42.988;20.338;2022-09-11T09:37:45;512.80;2380.80
70593;DHT22;58294;42.988;20.338;2022-09-11T09:40:16;537.60;2406.40
70593;DHT22;58294;42.988;20.338;2022-09-11T09:45:38;538.00;2406.40
70593;DHT22;58294;42.988;20.338;2022-09-11T09:48:06;538.20;2406.40
70593;DHT22;58294;42.988;20.338;2022-09-11T09:50:36;563.20;2432.00
70593;DHT22;58294;42.988;20.338;2022-09-11T09:55:43;563.70;2432.00
70593;DHT22;58294;42.988;20.338;2022-09-11T09:58:12;563.90;2432.00
70593;DHT22;58294;42.988;20.338;2022-09-11T10:00:39;588.80;2432.00
70593;DHT22;58294;42.988;20.338;2022-09-11T10:03:22;589.10;2432.00
70593;DHT22;58294;42.988;20.338;2022-09-11T10:05:50;589.60;2432.00
70593;DHT22;58294;42.988;20.338;2022-09-11T10:10:56;640.00;2432.00
70593;DHT22;58294;42.988;20.338;2022-09-11T10:13:25;640.40;2432.00
70593;DHT22;58294;42.988;20.338;2022-09-11T10:15:55;640.80;2432.00
70593;DHT22;58294;42.988;20.338;2022-09-11T10:21:26;640.60;2432.00
70593;DHT22;58294;42.988;20.338;2022-09-11T10:24:20;640.50;2432.00
70593;DHT22;58294;42.988;20.338;2022-09-11T10:26:51;665.90;2432.00
70593;DHT22;58294;42.988;20.338;2022-09-11T10:29:23;665.80;2432.00
70593;DHT22;58294;42.988;20.338;2022-09-11T10:31:52;665.60;2176.00
70593;DHT22;58294;42.988;20.338;2022-09-11T10:34:20;665.60;2432.00
70593;DHT22;58294;42.988;20.338;2022-09-11T10:37:00;665.70;2432.00
70593;DHT22;58294;42.988;20.338;2022-09-11T10:39:28;666.20;2432.00
70593;DHT22;58294;42.988;20.338;2022-09-11T10:41:57;691.40;2432.00
70593;DHT22;58294;42.988;20.338;2022-09-11T11:00:04;692.00;2355.20
70593;DHT22;58294;42.988;20.338;2022-09-11T11:02:34;716.80;2432.00
70593;DHT22;58294;42.988;20.338;2022-09-11T11:07:59;692.10;2355.20
70593;DHT22;58294;42.988;20.338;2022-09-11T11:25:25;691.30;1817.60
70593;DHT22;58294;42.988;20.338;2022-09-11T11:30:24;666.40;1792.00
70593;DHT22;58294;42.988;20.338;2022-09-11T11:36:07;666.30;1740.80
70593;DHT22;58294;42.988;20.338;2022-09-11T11:41:10;666.00;1664.00
70593;DHT22;58294;42.988;20.338;2022-09-11T11:43:40;666.00;1792.00
70593;DHT22;58294;42.988;20.338;2022-09-11T11:48:49;665.90;1715.20
70593;DHT22;58294;42.988;20.338;2022-09-11T11:51:22;665.80;1612.80
70593;DHT22;58294;42.988;20.338;2022-09-11T11:54:03;665.70;1664.00
70593;DHT22;58294;42.988;20.338;2022-09-11T12:04:45;640.40;1536.00
70593;DHT22;58294;42.988;20.338;2022-09-11T12:07:23;640.20;1510.40
70593;DHT22;58294;42.988;20.338;2022-09-11T12:09:52;615.30;1484.80
70593;DHT22;58294;42.988;20.338;2022-09-11T12:12:23;614.90;1536.00
70593;DHT22;58294;42.988;20.338;2022-09-11T12:14:51;614.60;1587.20
70593;DHT22;58294;42.988;20.338;2022-09-11T12:17:24;614.40;1638.40
70593;DHT22;58294;42.988;20.338;2022-09-11T12:22:48;563.90;1587.20
70593;DHT22;58294;42.988;20.338;2022-09-11T12:32:49;512.90;1817.60
70593;DHT22;58294;42.988;20.338;2022-09-11T12:40:54;512.30;1996.80
70593;DHT22;58294;42.988;20.338;2022-09-11T12:48:56;512.30;2201.60
70593;DHT22;58294;42.988;20.338;2022-09-11T12:51:28;512.40;2227.20
70593;DHT22;58294;42.988;20.338;2022-09-11T12:53:59;512.40;2355.20
70593;DHT22;58294;42.988;20.338;2022-09-11T12:56:28;512.50;2329.60
70593;DHT22;58294;42.988;20.338;2022-09-11T12:59:07;512.50;2278.40
70593;DHT22;58294;42.988;20.338;2022-09-11T13:01:37;512.60;2278.40
70593;DHT22;58294;42.988;20.338;2022-09-11T13:09:27;512.90;2380.80
70593;DHT22;58294;42.988;20.338;2022-09-11T13:14:46;537.60;2380.80
70593;DHT22;58294;42.988;20.338;2022-09-11T13:17:20;537.60;2406.40
70593;DHT22;58294;42.988;20.338;2022-09-11T13:22:34;537.70;2406.40
70593;DHT22;58294;42.988;20.338;2022-09-11T13:25:11;537.70;2406.40
70593;DHT22;58294;42.988;20.338;2022-09-11T13:27:39;537.70;2406.40
70593;DHT22;58294;42.988;20.338;2022-09-11T13:30:06;537.70;2406.40
70593;DHT22;58294;42.988;20.338;2022-09-11T13:32:33;537.70;2406.40
70593;DHT22;58294;42.988;20.338;2022-09-11T13:35:23;537.70;2406.40
70593;DHT22;58294;42.988;20.338;2022-09-11T13:38:01;537.70;2406.40
70593;DHT22;58294;42.988;20.338;2022-09-11T13:40:31;512.90;2380.80
70593;DHT22;58294;42.988;20.338;2022-09-11T13:43:00;512.80;2380.80
70593;DHT22;58294;42.988;20.338;2022-09-11T13:45:27;512.70;2380.80
70593;DHT22;58294;42.988;20.338;2022-09-11T13:47:53;512.70;2380.80
70593;DHT22;58294;42.988;20.338;2022-09-11T13:50:20;512.70;2380.80
70593;DHT22;58294;42.988;20.338;2022-09-11T13:52:48;512.60;2380.80
70593;DHT22;58294;42.988;20.338;2022-09-11T13:55:19;512.60;2380.80
70593;DHT22;58294;42.988;20.338;2022-09-11T13:57:54;512.50;2380.80
70593;DHT22;58294;42.988;20.338;2022-09-11T14:00:43;512.40;2380.80
70593;DHT22;58294;42.988;20.338;2022-09-11T14:03:33;512.30;2380.80
70593;DHT22;58294;42.988;20.338;2022-09-11T14:06:01;512.20;2380.80
70593;DHT22;58294;42.988;20.338;2022-09-11T14:08:41;512.00;2380.80
70593;DHT22;58294;42.988;20.338;2022-09-11T14:11:28;512.00;2380.80
70593;DHT22;58294;42.988;20.338;2022-09-11T14:16:36;487.20;2380.80
70593;DHT22;58294;42.988;20.338;2022-09-11T14:19:17;487.10;2380.80
70593;DHT22;58294;42.988;20.338;2022-09-11T14:21:46;487.00;2380.80
70593;DHT22;58294;42.988;20.338;2022-09-11T14:24:33;486.90;2380.80
70593;DHT22;58294;42.988;20.338;2022-09-11T14:27:32;486.90;2380.80
70593;DHT22;58294;42.988;20.338;2022-09-11T14:29:53;486.80;2380.80
70593;DHT22;58294;42.988;20.338;2022-09-11T14:32:38;486.80;2380.80
70593;DHT22;58294;42.988;20.338;2022-09-11T14:35:07;486.80;2380.80
70593;DHT22;58294;42.988;20.338;2022-09-11T14:37:38;486.80;2380.80
70593;DHT22;58294;42.988;20.338;2022-09-11T14:40:14;486.70;2380.80
70593;DHT22;58294;42.988;20.338;2022-09-11T14:42:41;486.70;2380.80
70593;DHT22;58294;42.988;20.338;2022-09-11T14:45:17;486.60;2380.80
70593;DHT22;58294;42.988;20.338;2022-09-11T14:47:43;486.70;2380.80
70593;DHT22;58294;42.988;20.338;2022-09-11T14:50:11;486.60;2380.80
70593;DHT22;58294;42.988;20.338;2022-09-11T14:52:38;486.60;2380.80
70593;DHT22;58294;42.988;20.338;2022-09-11T14:55:05;486.60;2380.80
70593;DHT22;58294;42.988;20.338;2022-09-11T14:57:34;486.60;2380.80
70593;DHT22;58294;42.988;20.338;2022-09-11T14:59:59;486.60;2380.80
70593;DHT22;58294;42.988;20.338;2022-09-11T15:02:27;486.60;2380.80
70593;DHT22;58294;42.988;20.338;2022-09-11T15:04:55;486.60;2380.80
70593;DHT22;58294;42.988;20.338;2022-09-11T15:07:22;486.60;2380.80
70593;DHT22;58294;42.988;20.338;2022-09-11T15:09:49;486.60;2380.80
70593;DHT22;58294;42.988;20.338;2022-09-11T15:12:16;486.60;2380.80
70593;DHT22;58294;42.988;20.338;2022-09-11T15:14:42;486.50;2380.80
70593;DHT22;58294;42.988;20.338;2022-09-11T15:17:11;486.50;2380.80
70593;DHT22;58294;42.988;20.338;2022-09-11T15:19:39;486.50;2380.80
70593;DHT22;58294;42.988;20.338;2022-09-11T15:22:06;486.50;2380.80
70593;DHT22;58294;42.988;20.338;2022-09-11T15:24:33;486.40;2380.80
70593;DHT22;58294;42.988;20.338;2022-09-11T15:26:59;461.70;2380.80
70593;DHT22;58294;42.988;20.338;2022-09-11T15:29:25;461.70;2380.80
70593;DHT22;58294;42.988;20.338;2022-09-11T15:31:52;461.60;2380.80
70593;DHT22;58294;42.988;20.338;2022-09-11T15:34:18;461.60;2380.80
70593;DHT22;58294;42.988;20.338;2022-09-11T15:36:44;461.60;2380.80
70593;DHT22;58294;42.988;20.338;2022-09-11T15:39:13;461.50;2380.80
70593;DHT22;58294;42.988;20.338;2022-09-11T15:41:40;461.50;2380.80
70593;DHT22;58294;42.988;20.338;2022-09-11T15:44:14;461.60;2380.80
70593;DHT22;58294;42.988;20.338;2022-09-11T15:46:45;461.50;2380.80
70593;DHT22;58294;42.988;20.338;2022-09-11T15:49:10;461.50;2380.80
70593;DHT22;58294;42.988;20.338;2022-09-11T15:51:36;461.40;2380.80
70593;DHT22;58294;42.988;20.338;2022-09-11T15:54:04;461.40;2380.80
70593;DHT22;58294;42.988;20.338;2022-09-11T15:56:30;461.50;2380.80
70593;DHT22;58294;42.988;20.338;2022-09-11T15:58:57;461.50;2380.80
70593;DHT22;58294;42.988;20.338;2022-09-11T16:01:30;461.40;2380.80
70593;DHT22;58294;42.988;20.338;2022-09-11T16:04:04;461.40;2380.80
70593;DHT22;58294;42.988;20.338;2022-09-11T16:06:33;461.50;2380.80
70593;DHT22;58294;42.988;20.338;2022-09-11T16:09:02;461.40;2380.80
70593;DHT22;58294;42.988;20.338;2022-09-11T16:11:31;461.30;2380.80
70593;DHT22;58294;42.988;20.338;2022-09-11T16:13:58;461.30;2380.80
70593;DHT22;58294;42.988;20.338;2022-09-11T16:16:24;461.30;2380.80
70593;DHT22;58294;42.988;20.338;2022-09-11T16:18:50;461.30;2380.80
70593;DHT22;58294;42.988;20.338;2022-09-11T16:21:17;461.30;2380.80
70593;DHT22;58294;42.988;20.338;2022-09-11T16:23:44;461.20;2380.80
70593;DHT22;58294;42.988;20.338;2022-09-11T16:26:15;461.20;2380.80
70593;DHT22;58294;42.988;20.338;2022-09-11T16:28:45;461.20;2380.80
70593;DHT22;58294;42.988;20.338;2022-09-11T16:31:12;461.10;2380.80
70593;DHT22;58294;42.988;20.338;2022-09-11T16:33:40;461.00;2380.80
70593;DHT22;58294;42.988;20.338;2022-09-11T16:36:11;461.00;2380.80
70593;DHT22;58294;42.988;20.338;2022-09-11T16:38:38;461.00;2380.80
70593;DHT22;58294;42.988;20.338;2022-09-11T16:41:05;461.00;2380.80
70593;DHT22;58294;42.988;20.338;2022-09-11T16:43:34;461.00;2380.80
70593;DHT22;58294;42.988;20.338;2022-09-11T16:46:00;461.00;2380.80
70593;DHT22;58294;42.988;20.338;2022-09-11T16:48:28;461.00;2380.80
70593;DHT22;58294;42.988;20.338;2022-09-11T16:50:54;461.00;2380.80
70593;DHT22;58294;42.988;20.338;2022-09-11T16:53:21;461.00;2380.80
70593;DHT22;58294;42.988;20.338;2022-09-11T16:55:47;460.90;2380.80
70593;DHT22;58294;42.988;20.338;2022-09-11T16:58:13;460.90;2380.80
70593;DHT22;58294;42.988;20.338;2022-09-11T17:00:40;460.90;2380.80
70593;DHT22;58294;42.988;20.338;2022-09-11T17:03:08;460.90;2380.80
70593;DHT22;58294;42.988;20.338;2022-09-11T17:05:34;460.90;2380.80
70593;DHT22;58294;42.988;20.338;2022-09-11T17:08:00;460.90;2380.80
70593;DHT22;58294;42.988;20.338;2022-09-11T17:10:26;460.90;2380.80
70593;DHT22;58294;42.988;20.338;2022-09-11T17:12:54;460.90;2380.80
70593;DHT22;58294;42.988;20.338;2022-09-11T17:15:20;460.90;2380.80
70593;DHT22;58294;42.988;20.338;2022-09-11T17:17:46;460.90;2380.80
70593;DHT22;58294;42.988;20.338;2022-09-11T17:20:12;460.90;2380.80